createdAt,value
2023-03-29T00:02:03.257Z,71.81
2023-03-29T00:04:30.443Z,76.23
2023-03-29T00:06:57.515Z,74.50
2023-03-29T00:09:26.838Z,73.76
2023-03-29T00:11:53.886Z,73.72
2023-03-29T00:14:20.941Z,74.34
2023-03-29T00:16:48.289Z,75.73
2023-03-29T00:19:15.279Z,71.71
2023-03-29T00:22:02.506Z,77.33
2023-03-29T00:24:42.894Z,82.13
2023-03-29T00:27:30.414Z,87.79
2023-03-29T00:30:12.067Z,88.55
2023-03-29T00:32:39.179Z,91.02
2023-03-29T00:35:06.690Z,94.12
2023-03-29T00:37:34.050Z,94.68
2023-03-29T00:40:01.213Z,97.19
2023-03-29T00:42:28.521Z,97.36
2023-03-29T00:45:30.637Z,98.02
2023-03-29T00:48:04.716Z,100.00
2023-03-29T00:50:41.303Z,100.00
2023-03-29T00:53:36.448Z,100.00
2023-03-29T00:56:24.388Z,100.00
2023-03-29T00:59:20.612Z,100.00
2023-03-29T01:01:59.946Z,100.00
2023-03-29T01:04:36.382Z,100.00
2023-03-29T01:07:06.179Z,100.00
2023-03-29T01:09:37.906Z,100.00
2023-03-29T01:12:17.209Z,100.00
2023-03-29T01:14:51.544Z,100.00
2023-03-29T01:17:21.963Z,100.00
2023-03-29T01:20:16.455Z,100.00
2023-03-29T01:23:27.463Z,100.00
2023-03-29T01:26:28.461Z,100.00
2023-03-29T01:29:18.495Z,100.00
2023-03-29T01:32:10.087Z,100.00
2023-03-29T01:34:48.520Z,100.00
2023-03-29T01:37:42.739Z,100.00
2023-03-29T01:40:43.434Z,100.00
2023-03-29T01:43:35.378Z,100.00
2023-03-29T01:46:14.430Z,100.00
2023-03-29T01:49:16.726Z,100.00
2023-03-29T01:51:55.220Z,100.00
2023-03-29T01:54:50.420Z,100.00
2023-03-29T01:57:33.387Z,100.00
2023-03-29T02:00:07.328Z,100.00
2023-03-29T02:02:44.903Z,100.00
2023-03-29T02:05:14.954Z,100.00
2023-03-29T02:07:45.189Z,100.00
2023-03-29T02:10:26.477Z,100.00
2023-03-29T02:13:27.475Z,100.00
2023-03-29T02:16:29.481Z,100.00
2023-03-29T02:19:10.826Z,100.00
2023-03-29T02:21:51.850Z,100.00
2023-03-29T02:24:21.961Z,100.00
2023-03-29T02:27:09.539Z,100.00
2023-03-29T02:30:05.825Z,100.00
2023-03-29T02:33:11.614Z,100.00
2023-03-29T02:35:54.794Z,100.00
2023-03-29T02:38:25.768Z,100.00
2023-03-29T02:40:53.080Z,99.77
2023-03-29T02:43:21.883Z,100.00
2023-03-29T02:45:53.200Z,99.49
2023-03-29T02:48:23.207Z,99.41
2023-03-29T02:50:55.518Z,99.83
2023-03-29T02:53:51.495Z,100.00
2023-03-29T02:56:43.393Z,100.00
2023-03-29T02:59:12.265Z,100.00
2023-03-29T03:02:01.530Z,100.00
2023-03-29T03:04:41.991Z,100.00
2023-03-29T03:07:09.547Z,100.00
2023-03-29T03:09:37.082Z,100.00
2023-03-29T03:12:04.125Z,100.00
2023-03-29T03:14:31.061Z,100.00
2023-03-29T03:17:19.552Z,100.00
2023-03-29T03:20:00.187Z,100.00
2023-03-29T03:22:28.246Z,100.00
2023-03-29T03:24:56.105Z,100.00
2023-03-29T03:27:43.527Z,100.00
2023-03-29T03:30:27.624Z,100.00
2023-03-29T03:33:13.168Z,100.00
2023-03-29T03:36:06.414Z,100.00
2023-03-29T03:38:37.491Z,100.00
2023-03-29T03:41:07.244Z,100.00
2023-03-29T03:43:35.414Z,100.00
2023-03-29T03:46:02.598Z,100.00
2023-03-29T03:48:30.567Z,100.00
2023-03-29T03:51:16.324Z,100.00
2023-03-29T03:54:03.535Z,100.00
2023-03-29T03:57:04.638Z,100.00
2023-03-29T03:59:53.184Z,100.00
2023-03-29T04:03:03.800Z,100.00
2023-03-29T04:05:45.931Z,100.00
2023-03-29T04:08:15.115Z,100.00
2023-03-29T04:11:01.298Z,100.00
2023-03-29T04:13:35.938Z,100.00
2023-03-29T04:16:24.555Z,100.00
2023-03-29T04:18:52.350Z,100.00
2023-03-29T04:21:21.268Z,100.00
2023-03-29T04:23:48.755Z,100.00
2023-03-29T04:26:16.131Z,100.00
2023-03-29T04:29:09.548Z,100.00
2023-03-29T04:31:56.575Z,100.00
2023-03-29T04:34:41.092Z,100.00
2023-03-29T04:37:10.615Z,100.00
2023-03-29T04:39:39.201Z,100.00
2023-03-29T04:42:08.958Z,100.00
2023-03-29T04:44:36.973Z,100.00
2023-03-29T04:47:07.748Z,100.00
2023-03-29T04:49:57.348Z,100.00
2023-03-29T04:52:35.582Z,100.00
2023-03-29T04:55:18.637Z,100.00
2023-03-29T04:58:05.838Z,100.00
2023-03-29T05:01:04.774Z,100.00
2023-03-29T05:04:12.622Z,100.00
2023-03-29T05:07:08.196Z,100.00
2023-03-29T05:09:35.747Z,100.00
2023-03-29T05:12:08.542Z,100.00
2023-03-29T05:14:47.547Z,100.00
2023-03-29T05:17:14.638Z,100.00
2023-03-29T05:19:41.570Z,100.00
2023-03-29T05:22:09.224Z,100.00
2023-03-29T05:24:37.599Z,100.00
2023-03-29T05:27:34.548Z,100.00
2023-03-29T05:30:36.583Z,100.00
2023-03-29T05:33:47.593Z,100.00
2023-03-29T05:36:43.127Z,98.60
2023-03-29T05:39:11.138Z,95.88
2023-03-29T05:41:41.903Z,92.38
2023-03-29T05:44:26.460Z,91.97
2023-03-29T05:46:59.912Z,84.67
2023-03-29T05:49:27.212Z,84.59
2023-03-29T05:52:09.018Z,82.55
2023-03-29T05:54:57.608Z,76.88
2023-03-29T05:57:58.619Z,74.54
2023-03-29T06:00:42.225Z,80.28
2023-03-29T06:03:30.017Z,94.89
2023-03-29T06:06:02.564Z,84.44
2023-03-29T06:08:31.952Z,79.71
2023-03-29T06:11:22.373Z,91.86
2023-03-29T06:14:13.785Z,88.71
2023-03-29T06:16:47.179Z,81.42
2023-03-29T06:19:15.409Z,85.48
2023-03-29T06:21:42.456Z,83.59
2023-03-29T06:24:32.609Z,81.23
2023-03-29T06:27:40.594Z,74.72
2023-03-29T06:30:43.665Z,70.36
2023-03-29T06:33:45.630Z,75.32
2023-03-29T06:36:53.037Z,69.26
2023-03-29T06:39:21.582Z,61.85
2023-03-29T06:42:19.921Z,62.52
2023-03-29T06:45:11.734Z,63.33
2023-03-29T06:47:39.863Z,64.15
2023-03-29T06:50:08.469Z,59.22
2023-03-29T06:53:03.617Z,56.62
2023-03-29T06:56:06.673Z,59.17
2023-03-29T06:58:48.654Z,59.18
2023-03-29T07:01:28.658Z,52.90
2023-03-29T07:04:08.185Z,55.18
2023-03-29T07:07:01.584Z,54.32
2023-03-29T07:09:31.764Z,51.46
2023-03-29T07:12:37.281Z,50.77
2023-03-29T07:15:04.754Z,49.24
2023-03-29T07:17:58.107Z,49.18
2023-03-29T07:20:27.366Z,49.53
2023-03-29T07:23:06.016Z,50.38
2023-03-29T07:25:34.098Z,48.91
2023-03-29T07:28:21.672Z,48.15
2023-03-29T07:31:25.617Z,48.47
2023-03-29T07:34:27.265Z,49.79
2023-03-29T07:36:55.378Z,52.95
2023-03-29T07:39:23.313Z,54.57
2023-03-29T07:42:11.197Z,51.86
2023-03-29T07:44:38.448Z,55.16
2023-03-29T07:47:05.650Z,55.28
2023-03-29T07:49:52.629Z,54.87
2023-03-29T07:52:34.203Z,55.45
2023-03-29T07:55:25.657Z,58.16
2023-03-29T07:58:23.265Z,57.47
2023-03-29T08:00:50.858Z,55.34
2023-03-29T08:03:46.724Z,54.25
2023-03-29T08:06:13.995Z,54.43
2023-03-29T08:08:41.030Z,54.27
2023-03-29T08:11:12.134Z,54.65
2023-03-29T08:13:44.973Z,57.85
2023-03-29T08:16:27.367Z,65.33
2023-03-29T08:19:11.539Z,61.88
2023-03-29T08:21:59.973Z,59.40
2023-03-29T08:24:32.631Z,59.29
2023-03-29T08:27:25.886Z,58.18
2023-03-29T08:30:09.530Z,56.29
2023-03-29T08:32:39.407Z,54.49
2023-03-29T08:35:09.755Z,57.06
2023-03-29T08:37:43.584Z,55.27
2023-03-29T08:40:27.539Z,54.88
2023-03-29T08:43:24.006Z,52.16
2023-03-29T08:46:58.825Z,54.59
2023-03-29T08:50:08.685Z,57.13
2023-03-29T08:53:00.621Z,57.51
2023-03-29T08:56:01.676Z,58.39
2023-03-29T08:59:01.344Z,54.99
2023-03-29T09:01:36.300Z,55.69
2023-03-29T09:04:15.830Z,59.36
2023-03-29T09:06:49.710Z,59.52
2023-03-29T09:09:23.906Z,59.39
2023-03-29T09:12:05.152Z,58.65
2023-03-29T09:14:44.149Z,59.11
2023-03-29T09:17:54.485Z,58.34
2023-03-29T09:21:01.665Z,57.87
2023-03-29T09:24:22.792Z,55.51
2023-03-29T09:27:39.687Z,54.10
2023-03-29T09:30:49.722Z,53.23
2023-03-29T09:33:37.247Z,51.35
2023-03-29T09:36:18.683Z,50.19
2023-03-29T09:38:51.137Z,47.64
2023-03-29T09:41:53.456Z,46.31
2023-03-29T09:44:46.688Z,51.81
2023-03-29T09:47:48.145Z,51.85
2023-03-29T09:50:41.350Z,52.07
2023-03-29T09:53:29.740Z,52.67
2023-03-29T09:56:48.814Z,51.24
2023-03-29T09:59:38.773Z,51.08
2023-03-29T10:02:12.842Z,51.43
2023-03-29T10:04:43.760Z,49.69
2023-03-29T10:07:18.992Z,47.08
2023-03-29T10:09:52.021Z,48.67
2023-03-29T10:12:20.970Z,47.08
2023-03-29T10:14:54.306Z,47.67
2023-03-29T10:17:28.195Z,50.88
2023-03-29T10:20:13.109Z,50.32
2023-03-29T10:23:01.732Z,45.85
2023-03-29T10:26:02.824Z,46.06
2023-03-29T10:28:54.767Z,49.13
2023-03-29T10:31:41.672Z,48.92
2023-03-29T10:34:15.198Z,46.90
2023-03-29T10:36:47.805Z,47.71
2023-03-29T10:39:16.568Z,45.64
2023-03-29T10:41:44.875Z,46.50
2023-03-29T10:44:46.812Z,45.33
2023-03-29T10:47:34.464Z,43.17
2023-03-29T10:50:05.960Z,41.99
2023-03-29T10:52:33.583Z,42.10
2023-03-29T10:55:26.714Z,45.22
2023-03-29T10:58:16.468Z,40.01
2023-03-29T11:00:57.024Z,43.31
2023-03-29T11:04:02.369Z,44.36
2023-03-29T11:07:03.432Z,46.44
2023-03-29T11:09:45.565Z,43.91
2023-03-29T11:12:27.943Z,44.25
2023-03-29T11:15:11.354Z,43.90
2023-03-29T11:17:54.431Z,44.35
2023-03-29T11:20:34.131Z,42.04
2023-03-29T11:23:10.096Z,43.00
2023-03-29T11:25:55.487Z,46.36
2023-03-29T11:28:51.847Z,47.20
2023-03-29T11:32:21.928Z,48.69
2023-03-29T11:35:34.864Z,49.65
2023-03-29T11:38:25.218Z,50.89
2023-03-29T11:41:38.797Z,51.20
2023-03-29T11:44:44.769Z,49.69
2023-03-29T11:47:47.795Z,49.21
2023-03-29T11:50:37.056Z,48.25
2023-03-29T11:53:26.806Z,47.11
2023-03-29T11:56:22.058Z,49.76
2023-03-29T11:58:55.818Z,49.13
2023-03-29T12:01:33.756Z,49.53
2023-03-29T12:04:08.078Z,47.73
2023-03-29T12:06:43.120Z,46.17
2023-03-29T12:09:22.916Z,47.87
2023-03-29T12:12:15.625Z,48.77
2023-03-29T12:15:07.269Z,47.94
2023-03-29T12:18:02.028Z,46.71
2023-03-29T12:20:34.144Z,46.48
2023-03-29T12:23:02.878Z,48.00
2023-03-29T12:25:38.069Z,47.94
2023-03-29T12:28:15.140Z,46.50
2023-03-29T12:31:10.253Z,47.68
2023-03-29T12:33:52.645Z,46.65
2023-03-29T12:36:41.781Z,48.62
2023-03-29T12:39:58.850Z,47.76
2023-03-29T12:43:35.830Z,49.36
2023-03-29T12:46:23.170Z,54.49
2023-03-29T12:48:59.721Z,50.23
2023-03-29T12:51:32.717Z,55.71
2023-03-29T12:54:41.851Z,48.62
2023-03-29T12:57:54.802Z,48.75
2023-03-29T13:00:50.985Z,50.54
2023-03-29T13:03:54.858Z,50.05
2023-03-29T13:07:02.773Z,51.87
2023-03-29T13:09:49.773Z,51.02
2023-03-29T13:12:16.709Z,59.06
2023-03-29T13:14:49.863Z,51.57
2023-03-29T13:18:15.955Z,50.89
2023-03-29T13:21:24.703Z,50.61
2023-03-29T13:23:59.938Z,51.63
2023-03-29T13:27:16.358Z,50.93
2023-03-29T13:29:47.820Z,51.57
2023-03-29T13:32:27.277Z,51.30
2023-03-29T13:35:33.877Z,57.80
2023-03-29T13:38:39.049Z,56.89
2023-03-29T13:41:33.547Z,53.85
2023-03-29T13:44:00.675Z,52.30
2023-03-29T13:46:58.060Z,54.93
2023-03-29T13:50:06.882Z,52.38
2023-03-29T13:53:14.864Z,53.59
2023-03-29T13:56:16.837Z,53.55
2023-03-29T13:59:31.972Z,54.97
2023-03-29T14:02:41.047Z,55.81
2023-03-29T14:05:38.627Z,54.86
2023-03-29T14:08:14.812Z,59.99
2023-03-29T14:10:44.350Z,55.30
2023-03-29T14:13:17.675Z,55.44
2023-03-29T14:15:52.343Z,60.39
2023-03-29T14:18:45.954Z,55.58
2023-03-29T14:21:26.749Z,56.75
2023-03-29T14:24:03.385Z,55.72
2023-03-29T14:26:33.262Z,56.18
2023-03-29T14:29:01.890Z,56.11
2023-03-29T14:31:51.964Z,54.71
2023-03-29T14:34:32.439Z,55.67
2023-03-29T14:36:59.934Z,56.18
2023-03-29T14:39:27.058Z,54.89
2023-03-29T14:41:59.321Z,57.08
2023-03-29T14:44:31.052Z,56.32
2023-03-29T14:46:58.617Z,55.75
2023-03-29T14:49:26.339Z,56.27
2023-03-29T14:51:55.288Z,56.97
2023-03-29T14:54:46.866Z,56.72
2023-03-29T14:57:49.898Z,56.29
2023-03-29T15:00:55.005Z,56.04
2023-03-29T15:04:04.897Z,60.69
2023-03-29T15:06:47.071Z,59.93
2023-03-29T15:09:30.044Z,59.44
2023-03-29T15:12:16.903Z,64.11
2023-03-29T15:14:58.743Z,60.69
2023-03-29T15:17:36.299Z,60.07
2023-03-29T15:20:13.238Z,62.08
2023-03-29T15:22:52.497Z,65.50
2023-03-29T15:25:21.839Z,60.44
2023-03-29T15:28:09.900Z,62.72
2023-03-29T15:31:06.754Z,64.98
2023-03-29T15:33:40.091Z,61.31
2023-03-29T15:36:09.887Z,62.59
2023-03-29T15:38:56.946Z,64.88
2023-03-29T15:41:37.487Z,62.94
2023-03-29T15:44:04.547Z,62.76
2023-03-29T15:46:32.384Z,64.99
2023-03-29T15:48:59.418Z,61.09
2023-03-29T15:51:26.417Z,62.39
2023-03-29T15:54:13.900Z,64.21
2023-03-29T15:57:01.659Z,61.48
2023-03-29T15:59:51.358Z,61.34
2023-03-29T16:02:53.992Z,63.23
2023-03-29T16:05:55.943Z,63.85
2023-03-29T16:08:42.957Z,64.54
2023-03-29T16:11:15.778Z,66.39
2023-03-29T16:13:42.846Z,65.86
2023-03-29T16:16:11.152Z,66.76
2023-03-29T16:18:38.839Z,66.80
2023-03-29T16:21:06.513Z,69.04
2023-03-29T16:23:54.966Z,69.98
2023-03-29T16:26:56.417Z,71.54
2023-03-29T16:29:53.153Z,68.74
2023-03-29T16:32:20.112Z,63.30
2023-03-29T16:34:47.391Z,63.53
2023-03-29T16:37:14.535Z,63.89
2023-03-29T16:39:41.535Z,63.02
2023-03-29T16:42:11.355Z,63.47
2023-03-29T16:44:38.703Z,61.97
2023-03-29T16:47:06.080Z,63.26
2023-03-29T16:49:55.027Z,62.39
2023-03-29T16:52:56.128Z,62.88
2023-03-29T16:55:59.989Z,66.17
2023-03-29T16:58:41.383Z,63.15
2023-03-29T17:01:16.771Z,65.40
2023-03-29T17:03:44.796Z,64.80
2023-03-29T17:06:11.978Z,64.91
2023-03-29T17:08:40.324Z,63.19
2023-03-29T17:11:07.522Z,65.75
2023-03-29T17:13:35.058Z,67.08
2023-03-29T17:16:02.346Z,65.40
2023-03-29T17:18:29.708Z,67.54
2023-03-29T17:20:57.930Z,66.71
2023-03-29T17:23:44.993Z,68.41
2023-03-29T17:26:46.092Z,68.59
2023-03-29T17:29:47.001Z,68.72
2023-03-29T17:32:27.836Z,70.46
2023-03-29T17:34:54.876Z,70.27
2023-03-29T17:37:24.378Z,71.72
2023-03-29T17:39:51.391Z,71.09
2023-03-29T17:42:18.553Z,73.07
2023-03-29T17:44:45.657Z,73.43
2023-03-29T17:47:16.380Z,73.93
2023-03-29T17:49:43.668Z,75.18
2023-03-29T17:52:10.964Z,73.90
2023-03-29T17:54:59.395Z,76.62
2023-03-29T17:58:00.676Z,77.99
2023-03-29T18:00:43.956Z,78.89
2023-03-29T18:03:11.188Z,80.32
2023-03-29T18:05:41.266Z,82.45
2023-03-29T18:08:10.243Z,83.45
2023-03-29T18:10:37.246Z,86.16
2023-03-29T18:13:04.982Z,88.18
2023-03-29T18:15:33.669Z,93.04
2023-03-29T18:18:21.153Z,88.79
2023-03-29T18:21:23.295Z,87.71
2023-03-29T18:24:05.174Z,87.22
2023-03-29T18:26:34.468Z,90.48
2023-03-29T18:29:02.221Z,94.85
2023-03-29T18:31:31.302Z,98.05
2023-03-29T18:33:58.762Z,100.00
2023-03-29T18:36:29.270Z,100.00
2023-03-29T18:39:18.538Z,99.14
2023-03-29T18:42:21.056Z,99.40
2023-03-29T18:45:04.626Z,100.00
2023-03-29T18:47:31.739Z,100.00
2023-03-29T18:50:21.061Z,98.86
2023-03-29T18:53:22.114Z,100.00
2023-03-29T18:56:23.194Z,100.00
2023-03-29T18:59:06.973Z,100.00
2023-03-29T19:01:34.381Z,100.00
2023-03-29T19:04:01.579Z,100.00
2023-03-29T19:06:28.790Z,100.00
2023-03-29T19:08:58.633Z,100.00
2023-03-29T19:11:28.820Z,100.00
2023-03-29T19:13:56.578Z,100.00
2023-03-29T19:16:23.859Z,100.00
2023-03-29T19:18:50.958Z,100.00
2023-03-29T19:21:18.126Z,100.00
2023-03-29T19:23:45.312Z,100.00
2023-03-29T19:26:32.083Z,100.00
2023-03-29T19:29:13.104Z,100.00
2023-03-29T19:32:01.122Z,100.00
2023-03-29T19:34:41.584Z,100.00
2023-03-29T19:37:09.843Z,100.00
2023-03-29T19:39:37.124Z,100.00
2023-03-29T19:42:08.049Z,100.00
2023-03-29T19:44:38.262Z,100.00
2023-03-29T19:47:20.346Z,100.00
2023-03-29T19:50:22.200Z,100.00
2023-03-29T19:53:23.219Z,100.00
2023-03-29T19:56:24.152Z,100.00
2023-03-29T19:59:08.359Z,100.00
2023-03-29T20:01:49.507Z,100.00
2023-03-29T20:04:50.143Z,100.00
2023-03-29T20:07:30.768Z,100.00
2023-03-29T20:09:57.818Z,100.00
2023-03-29T20:12:25.119Z,100.00
2023-03-29T20:14:52.222Z,100.00
2023-03-29T20:17:39.156Z,100.00
2023-03-29T20:20:21.510Z,100.00
2023-03-29T20:22:48.387Z,100.00
2023-03-29T20:25:15.657Z,100.00
2023-03-29T20:27:42.871Z,100.00
2023-03-29T20:30:11.567Z,100.00
2023-03-29T20:32:38.806Z,100.00
2023-03-29T20:35:06.464Z,100.00
2023-03-29T20:37:33.431Z,100.00
2023-03-29T20:40:01.134Z,100.00
2023-03-29T20:42:29.774Z,100.00
2023-03-29T20:45:11.196Z,100.00
2023-03-29T20:47:57.918Z,100.00
2023-03-29T20:50:29.008Z,100.00
2023-03-29T20:52:57.137Z,100.00
2023-03-29T20:55:47.158Z,100.00
2023-03-29T20:58:48.116Z,100.00
2023-03-29T21:01:30.224Z,100.00
2023-03-29T21:04:17.157Z,100.00
2023-03-29T21:07:00.390Z,100.00
2023-03-29T21:09:28.656Z,100.00
2023-03-29T21:11:55.906Z,100.00
2023-03-29T21:14:22.897Z,100.00
2023-03-29T21:16:50.261Z,100.00
2023-03-29T21:19:17.306Z,100.00
2023-03-29T21:21:47.015Z,100.00
2023-03-29T21:24:34.126Z,100.00
2023-03-29T21:27:35.164Z,100.00
2023-03-29T21:30:16.129Z,100.00
2023-03-29T21:33:03.168Z,100.00
2023-03-29T21:35:43.662Z,100.00
2023-03-29T21:38:31.180Z,100.00
2023-03-29T21:41:32.173Z,100.00
2023-03-29T21:44:12.957Z,100.00
2023-03-29T21:46:40.002Z,100.00
2023-03-29T21:49:06.960Z,100.00
2023-03-29T21:51:33.930Z,100.00
2023-03-29T21:54:21.199Z,100.00
2023-03-29T21:57:01.866Z,100.00
2023-03-29T21:59:29.077Z,100.00
2023-03-29T22:02:16.256Z,100.00
2023-03-29T22:05:18.126Z,100.00
2023-03-29T22:08:20.165Z,100.00
2023-03-29T22:11:08.158Z,100.00
2023-03-29T22:13:35.395Z,100.00
2023-03-29T22:16:04.048Z,100.00
2023-03-29T22:18:44.614Z,100.00
2023-03-29T22:21:22.673Z,100.00
2023-03-29T22:23:52.209Z,100.00
2023-03-29T22:26:22.099Z,100.00
2023-03-29T22:28:50.666Z,100.00
2023-03-29T22:31:19.742Z,100.00
2023-03-29T22:33:47.646Z,100.00
2023-03-29T22:36:25.798Z,100.00
2023-03-29T22:39:13.232Z,100.00
2023-03-29T22:41:53.719Z,100.00
2023-03-29T22:44:21.030Z,100.00
2023-03-29T22:46:47.955Z,100.00
2023-03-29T22:49:14.991Z,100.00
2023-03-29T22:51:41.949Z,100.00
2023-03-29T22:54:30.193Z,100.00
2023-03-29T22:57:11.025Z,100.00
2023-03-29T22:59:38.044Z,100.00
2023-03-29T23:02:25.230Z,100.00
2023-03-29T23:05:26.218Z,100.00
2023-03-29T23:08:27.178Z,100.00
2023-03-29T23:11:04.613Z,100.00
2023-03-29T23:13:33.631Z,100.00
2023-03-29T23:16:02.488Z,100.00
2023-03-29T23:18:31.013Z,100.00
2023-03-29T23:20:59.050Z,100.00
2023-03-29T23:23:46.189Z,100.00
2023-03-29T23:26:27.846Z,100.00
2023-03-29T23:28:54.847Z,100.00
2023-03-29T23:31:24.032Z,100.00
2023-03-29T23:33:53.105Z,100.00
2023-03-29T23:36:40.462Z,100.00
2023-03-29T23:39:20.856Z,100.00
2023-03-29T23:41:47.933Z,100.00
2023-03-29T23:44:14.863Z,100.00
2023-03-29T23:46:41.950Z,100.00
2023-03-29T23:49:10.040Z,100.00
2023-03-29T23:51:36.920Z,100.00
2023-03-29T23:54:25.222Z,100.00
2023-03-29T23:57:06.270Z,100.00
2023-03-29T23:59:37.875Z,100.00
